sensor_id;sensor_type;location;lat;lon;timestamp;P1;durP1;ratioP1;P2;durP2;ratioP2
48813;SDS011;34634;44.108;3.074;2022-10-23T00:00:30;17.17;;;6.75;;
48813;SDS011;34634;44.108;3.074;2022-10-23T00:02:57;20.42;;;8.32;;
48813;SDS011;34634;44.108;3.074;2022-10-23T00:05:24;14.32;;;7.25;;
48813;SDS011;34634;44.108;3.074;2022-10-23T00:07:54;17.88;;;6.82;;
48813;SDS011;34634;44.108;3.074;2022-10-23T00:10:21;15.65;;;6.93;;
48813;SDS011;34634;44.108;3.074;2022-10-23T00:12:48;15.98;;;6.72;;
48813;SDS011;34634;44.108;3.074;2022-10-23T00:15:15;16.08;;;6.82;;
48813;SDS011;34634;44.108;3.074;2022-10-23T00:17:42;16.85;;;7.07;;
48813;SDS011;34634;44.108;3.074;2022-10-23T00:20:09;16.38;;;6.85;;
48813;SDS011;34634;44.108;3.074;2022-10-23T00:22:35;16.40;;;6.65;;
48813;SDS011;34634;44.108;3.074;2022-10-23T00:25:03;14.43;;;7.50;;
48813;SDS011;34634;44.108;3.074;2022-10-23T00:27:29;14.15;;;6.35;;
48813;SDS011;34634;44.108;3.074;2022-10-23T00:29:56;18.25;;;7.20;;
48813;SDS011;34634;44.108;3.074;2022-10-23T00:32:22;19.30;;;7.22;;
48813;SDS011;34634;44.108;3.074;2022-10-23T00:34:48;14.05;;;6.63;;
48813;SDS011;34634;44.108;3.074;2022-10-23T00:37:15;15.13;;;6.95;;
48813;SDS011;34634;44.108;3.074;2022-10-23T00:39:41;16.52;;;6.47;;
48813;SDS011;34634;44.108;3.074;2022-10-23T00:42:09;17.85;;;6.55;;
48813;SDS011;34634;44.108;3.074;2022-10-23T00:47:07;15.57;;;5.95;;
48813;SDS011;34634;44.108;3.074;2022-10-23T00:49:33;11.55;;;6.05;;
48813;SDS011;34634;44.108;3.074;2022-10-23T00:52:01;12.13;;;5.78;;
48813;SDS011;34634;44.108;3.074;2022-10-23T00:54:30;17.52;;;6.35;;
48813;SDS011;34634;44.108;3.074;2022-10-23T00:56:58;12.63;;;5.75;;
48813;SDS011;34634;44.108;3.074;2022-10-23T00:59:26;15.23;;;5.70;;
48813;SDS011;34634;44.108;3.074;2022-10-23T01:01:53;12.57;;;6.22;;
48813;SDS011;34634;44.108;3.074;2022-10-23T01:04:19;14.60;;;6.68;;
48813;SDS011;34634;44.108;3.074;2022-10-23T01:06:52;14.48;;;6.72;;
48813;SDS011;34634;44.108;3.074;2022-10-23T01:09:31;11.23;;;5.63;;
48813;SDS011;34634;44.108;3.074;2022-10-23T01:12:00;13.10;;;6.43;;
48813;SDS011;34634;44.108;3.074;2022-10-23T01:14:37;11.50;;;5.85;;
48813;SDS011;34634;44.108;3.074;2022-10-23T01:17:06;16.02;;;5.85;;
48813;SDS011;34634;44.108;3.074;2022-10-23T01:24:58;10.38;;;5.38;;
48813;SDS011;34634;44.108;3.074;2022-10-23T01:27:35;11.25;;;5.80;;
48813;SDS011;34634;44.108;3.074;2022-10-23T01:30:06;12.57;;;5.47;;
48813;SDS011;34634;44.108;3.074;2022-10-23T01:35:13;12.85;;;5.80;;
48813;SDS011;34634;44.108;3.074;2022-10-23T01:37:42;9.20;;;5.00;;
48813;SDS011;34634;44.108;3.074;2022-10-23T01:40:12;11.45;;;5.63;;
48813;SDS011;34634;44.108;3.074;2022-10-23T01:42:43;15.70;;;6.20;;
48813;SDS011;34634;44.108;3.074;2022-10-23T01:48:14;17.08;;;5.88;;
48813;SDS011;34634;44.108;3.074;2022-10-23T01:50:42;18.10;;;6.40;;
48813;SDS011;34634;44.108;3.074;2022-10-23T01:53:10;15.77;;;6.57;;
48813;SDS011;34634;44.108;3.074;2022-10-23T01:55:36;12.68;;;5.35;;
48813;SDS011;34634;44.108;3.074;2022-10-23T01:58:04;14.65;;;5.28;;
48813;SDS011;34634;44.108;3.074;2022-10-23T02:00:33;11.75;;;5.50;;
48813;SDS011;34634;44.108;3.074;2022-10-23T02:03:01;13.60;;;6.00;;
48813;SDS011;34634;44.108;3.074;2022-10-23T02:05:29;16.27;;;6.25;;
48813;SDS011;34634;44.108;3.074;2022-10-23T02:07:56;14.82;;;5.50;;
48813;SDS011;34634;44.108;3.074;2022-10-23T02:10:34;14.98;;;5.78;;
48813;SDS011;34634;44.108;3.074;2022-10-23T02:13:07;10.68;;;5.88;;
48813;SDS011;34634;44.108;3.074;2022-10-23T02:15:37;16.80;;;5.85;;
48813;SDS011;34634;44.108;3.074;2022-10-23T02:25:41;14.68;;;5.32;;
48813;SDS011;34634;44.108;3.074;2022-10-23T02:28:09;13.73;;;5.90;;
48813;SDS011;34634;44.108;3.074;2022-10-23T02:30:39;17.20;;;4.90;;
48813;SDS011;34634;44.108;3.074;2022-10-23T02:33:07;17.33;;;5.55;;
48813;SDS011;34634;44.108;3.074;2022-10-23T02:35:34;11.80;;;5.20;;
48813;SDS011;34634;44.108;3.074;2022-10-23T02:38:00;12.07;;;4.45;;
48813;SDS011;34634;44.108;3.074;2022-10-23T02:40:34;12.60;;;4.82;;
48813;SDS011;34634;44.108;3.074;2022-10-23T02:43:06;14.15;;;4.80;;
48813;SDS011;34634;44.108;3.074;2022-10-23T02:46:19;13.00;;;5.15;;
48813;SDS011;34634;44.108;3.074;2022-10-23T02:48:30;14.93;;;4.93;;
48813;SDS011;34634;44.108;3.074;2022-10-23T02:51:05;8.85;;;3.85;;
48813;SDS011;34634;44.108;3.074;2022-10-23T02:53:36;18.10;;;5.20;;
48813;SDS011;34634;44.108;3.074;2022-10-23T02:56:17;15.40;;;5.18;;
48813;SDS011;34634;44.108;3.074;2022-10-23T02:58:47;7.75;;;4.28;;
48813;SDS011;34634;44.108;3.074;2022-10-23T03:01:23;14.00;;;5.20;;
48813;SDS011;34634;44.108;3.074;2022-10-23T03:03:52;14.20;;;4.75;;
48813;SDS011;34634;44.108;3.074;2022-10-23T03:06:19;15.05;;;5.10;;
48813;SDS011;34634;44.108;3.074;2022-10-23T03:09:01;14.10;;;5.22;;
48813;SDS011;34634;44.108;3.074;2022-10-23T03:11:28;13.95;;;5.07;;
48813;SDS011;34634;44.108;3.074;2022-10-23T03:13:54;15.95;;;5.13;;
48813;SDS011;34634;44.108;3.074;2022-10-23T03:16:21;19.27;;;5.55;;
48813;SDS011;34634;44.108;3.074;2022-10-23T03:18:47;11.75;;;4.93;;
48813;SDS011;34634;44.108;3.074;2022-10-23T03:21:14;20.25;;;4.72;;
48813;SDS011;34634;44.108;3.074;2022-10-23T03:23:40;13.15;;;4.47;;
48813;SDS011;34634;44.108;3.074;2022-10-23T03:26:06;17.98;;;5.28;;
48813;SDS011;34634;44.108;3.074;2022-10-23T03:28:33;16.25;;;5.18;;
48813;SDS011;34634;44.108;3.074;2022-10-23T03:31:00;10.25;;;4.32;;
48813;SDS011;34634;44.108;3.074;2022-10-23T03:33:26;12.25;;;4.68;;
48813;SDS011;34634;44.108;3.074;2022-10-23T03:35:53;13.95;;;5.55;;
48813;SDS011;34634;44.108;3.074;2022-10-23T03:38:19;16.65;;;5.78;;
48813;SDS011;34634;44.108;3.074;2022-10-23T03:40:46;24.35;;;5.65;;
48813;SDS011;34634;44.108;3.074;2022-10-23T03:43:12;18.20;;;6.07;;
48813;SDS011;34634;44.108;3.074;2022-10-23T03:45:38;26.80;;;5.90;;
48813;SDS011;34634;44.108;3.074;2022-10-23T03:48:05;23.80;;;6.00;;
48813;SDS011;34634;44.108;3.074;2022-10-23T03:50:32;21.08;;;6.03;;
48813;SDS011;34634;44.108;3.074;2022-10-23T03:52:59;20.15;;;6.63;;
48813;SDS011;34634;44.108;3.074;2022-10-23T03:55:25;14.30;;;5.28;;
48813;SDS011;34634;44.108;3.074;2022-10-23T03:57:52;19.25;;;6.10;;
48813;SDS011;34634;44.108;3.074;2022-10-23T04:00:18;23.95;;;6.35;;
48813;SDS011;34634;44.108;3.074;2022-10-23T04:02:44;23.52;;;6.38;;
48813;SDS011;34634;44.108;3.074;2022-10-23T04:05:11;22.40;;;6.50;;
48813;SDS011;34634;44.108;3.074;2022-10-23T04:07:37;17.60;;;5.80;;
48813;SDS011;34634;44.108;3.074;2022-10-23T04:10:04;21.58;;;5.38;;
48813;SDS011;34634;44.108;3.074;2022-10-23T04:12:30;17.70;;;5.72;;
48813;SDS011;34634;44.108;3.074;2022-10-23T04:14:57;23.05;;;6.10;;
48813;SDS011;34634;44.108;3.074;2022-10-23T04:17:23;19.55;;;6.03;;
48813;SDS011;34634;44.108;3.074;2022-10-23T04:19:49;23.48;;;6.28;;
48813;SDS011;34634;44.108;3.074;2022-10-23T04:22:16;24.50;;;6.30;;
48813;SDS011;34634;44.108;3.074;2022-10-23T04:24:42;30.52;;;5.80;;
48813;SDS011;34634;44.108;3.074;2022-10-23T04:27:11;23.92;;;6.20;;
48813;SDS011;34634;44.108;3.074;2022-10-23T04:29:37;27.77;;;5.80;;
48813;SDS011;34634;44.108;3.074;2022-10-23T04:32:05;22.40;;;6.03;;
48813;SDS011;34634;44.108;3.074;2022-10-23T04:34:31;22.75;;;6.15;;
48813;SDS011;34634;44.108;3.074;2022-10-23T04:36:58;27.25;;;6.00;;
48813;SDS011;34634;44.108;3.074;2022-10-23T04:39:24;24.30;;;6.68;;
48813;SDS011;34634;44.108;3.074;2022-10-23T04:41:50;23.17;;;6.05;;
48813;SDS011;34634;44.108;3.074;2022-10-23T04:44:17;23.67;;;6.10;;
48813;SDS011;34634;44.108;3.074;2022-10-23T04:46:43;22.35;;;5.97;;
48813;SDS011;34634;44.108;3.074;2022-10-23T04:49:09;36.90;;;6.65;;
48813;SDS011;34634;44.108;3.074;2022-10-23T04:51:36;29.92;;;6.68;;
48813;SDS011;34634;44.108;3.074;2022-10-23T04:54:03;23.70;;;6.22;;
48813;SDS011;34634;44.108;3.074;2022-10-23T04:56:29;23.73;;;6.55;;
48813;SDS011;34634;44.108;3.074;2022-10-23T04:58:55;28.33;;;5.90;;
48813;SDS011;34634;44.108;3.074;2022-10-23T05:01:22;23.63;;;6.05;;
48813;SDS011;34634;44.108;3.074;2022-10-23T05:03:48;26.45;;;6.22;;
48813;SDS011;34634;44.108;3.074;2022-10-23T05:06:14;25.45;;;6.72;;
48813;SDS011;34634;44.108;3.074;2022-10-23T05:08:41;27.45;;;7.00;;
48813;SDS011;34634;44.108;3.074;2022-10-23T05:11:07;26.02;;;6.10;;
48813;SDS011;34634;44.108;3.074;2022-10-23T05:13:33;30.58;;;6.63;;
48813;SDS011;34634;44.108;3.074;2022-10-23T05:16:00;29.33;;;6.63;;
48813;SDS011;34634;44.108;3.074;2022-10-23T05:20:54;23.50;;;5.80;;
48813;SDS011;34634;44.108;3.074;2022-10-23T05:23:22;25.20;;;5.97;;
48813;SDS011;34634;44.108;3.074;2022-10-23T05:25:50;25.00;;;6.55;;
48813;SDS011;34634;44.108;3.074;2022-10-23T05:28:16;27.52;;;6.97;;
48813;SDS011;34634;44.108;3.074;2022-10-23T05:30:42;24.15;;;6.20;;
48813;SDS011;34634;44.108;3.074;2022-10-23T05:33:09;32.03;;;7.13;;
48813;SDS011;34634;44.108;3.074;2022-10-23T05:35:35;21.20;;;6.43;;
48813;SDS011;34634;44.108;3.074;2022-10-23T05:38:02;21.27;;;6.18;;
48813;SDS011;34634;44.108;3.074;2022-10-23T05:40:29;23.33;;;6.30;;
48813;SDS011;34634;44.108;3.074;2022-10-23T05:42:55;22.90;;;5.55;;
48813;SDS011;34634;44.108;3.074;2022-10-23T05:45:21;28.88;;;6.15;;
48813;SDS011;34634;44.108;3.074;2022-10-23T05:47:48;27.80;;;5.65;;
48813;SDS011;34634;44.108;3.074;2022-10-23T05:50:14;24.15;;;6.20;;
48813;SDS011;34634;44.108;3.074;2022-10-23T05:52:41;27.65;;;6.03;;
48813;SDS011;34634;44.108;3.074;2022-10-23T05:55:10;19.90;;;5.05;;
48813;SDS011;34634;44.108;3.074;2022-10-23T05:57:36;20.55;;;5.82;;
48813;SDS011;34634;44.108;3.074;2022-10-23T06:00:03;29.15;;;5.43;;
48813;SDS011;34634;44.108;3.074;2022-10-23T06:02:30;21.90;;;6.10;;
48813;SDS011;34634;44.108;3.074;2022-10-23T06:04:57;24.02;;;5.57;;
48813;SDS011;34634;44.108;3.074;2022-10-23T06:07:27;26.85;;;5.78;;
48813;SDS011;34634;44.108;3.074;2022-10-23T06:09:53;24.87;;;5.80;;
48813;SDS011;34634;44.108;3.074;2022-10-23T06:12:20;27.50;;;6.40;;
48813;SDS011;34634;44.108;3.074;2022-10-23T06:14:47;27.15;;;6.00;;
48813;SDS011;34634;44.108;3.074;2022-10-23T06:17:13;29.00;;;6.10;;
48813;SDS011;34634;44.108;3.074;2022-10-23T06:19:40;26.65;;;6.32;;
48813;SDS011;34634;44.108;3.074;2022-10-23T06:22:06;21.80;;;6.00;;
48813;SDS011;34634;44.108;3.074;2022-10-23T06:24:32;23.55;;;6.10;;
48813;SDS011;34634;44.108;3.074;2022-10-23T06:26:59;24.42;;;6.70;;
48813;SDS011;34634;44.108;3.074;2022-10-23T06:29:25;28.75;;;7.05;;
48813;SDS011;34634;44.108;3.074;2022-10-23T06:31:51;30.50;;;6.70;;
48813;SDS011;34634;44.108;3.074;2022-10-23T06:34:18;30.10;;;7.80;;
48813;SDS011;34634;44.108;3.074;2022-10-23T06:36:44;25.48;;;5.75;;
48813;SDS011;34634;44.108;3.074;2022-10-23T06:39:10;28.67;;;6.57;;
48813;SDS011;34634;44.108;3.074;2022-10-23T06:41:36;21.52;;;6.10;;
48813;SDS011;34634;44.108;3.074;2022-10-23T06:44:06;25.83;;;6.72;;
48813;SDS011;34634;44.108;3.074;2022-10-23T06:46:34;34.05;;;6.32;;
48813;SDS011;34634;44.108;3.074;2022-10-23T06:49:01;21.40;;;5.85;;
48813;SDS011;34634;44.108;3.074;2022-10-23T06:51:27;34.70;;;7.15;;
48813;SDS011;34634;44.108;3.074;2022-10-23T06:53:54;30.20;;;7.15;;
48813;SDS011;34634;44.108;3.074;2022-10-23T06:56:21;32.05;;;6.55;;
48813;SDS011;34634;44.108;3.074;2022-10-23T06:58:49;22.65;;;6.70;;
48813;SDS011;34634;44.108;3.074;2022-10-23T07:01:16;25.02;;;5.93;;
48813;SDS011;34634;44.108;3.074;2022-10-23T07:03:42;32.75;;;5.60;;
48813;SDS011;34634;44.108;3.074;2022-10-23T07:06:09;23.63;;;5.72;;
48813;SDS011;34634;44.108;3.074;2022-10-23T07:08:35;22.83;;;5.93;;
48813;SDS011;34634;44.108;3.074;2022-10-23T07:11:03;24.15;;;6.10;;
48813;SDS011;34634;44.108;3.074;2022-10-23T07:13:29;21.75;;;6.15;;
48813;SDS011;34634;44.108;3.074;2022-10-23T07:15:56;24.60;;;5.60;;
48813;SDS011;34634;44.108;3.074;2022-10-23T07:18:22;26.83;;;5.82;;
48813;SDS011;34634;44.108;3.074;2022-10-23T07:20:48;24.08;;;5.25;;
48813;SDS011;34634;44.108;3.074;2022-10-23T07:23:21;23.27;;;5.68;;
48813;SDS011;34634;44.108;3.074;2022-10-23T07:25:48;23.23;;;5.15;;
48813;SDS011;34634;44.108;3.074;2022-10-23T07:28:14;24.02;;;5.57;;
48813;SDS011;34634;44.108;3.074;2022-10-23T07:30:40;29.92;;;6.15;;
48813;SDS011;34634;44.108;3.074;2022-10-23T07:33:07;21.05;;;4.80;;
48813;SDS011;34634;44.108;3.074;2022-10-23T07:35:37;30.15;;;6.88;;
48813;SDS011;34634;44.108;3.074;2022-10-23T07:38:03;27.88;;;5.15;;
48813;SDS011;34634;44.108;3.074;2022-10-23T07:40:30;27.52;;;5.47;;
48813;SDS011;34634;44.108;3.074;2022-10-23T07:42:56;28.92;;;5.95;;
48813;SDS011;34634;44.108;3.074;2022-10-23T07:45:22;20.67;;;4.65;;
48813;SDS011;34634;44.108;3.074;2022-10-23T07:47:49;21.73;;;4.82;;
48813;SDS011;34634;44.108;3.074;2022-10-23T07:50:16;22.70;;;5.10;;
48813;SDS011;34634;44.108;3.074;2022-10-23T07:52:42;27.63;;;5.03;;
48813;SDS011;34634;44.108;3.074;2022-10-23T07:55:09;25.60;;;5.22;;
48813;SDS011;34634;44.108;3.074;2022-10-23T07:57:36;28.80;;;5.32;;
48813;SDS011;34634;44.108;3.074;2022-10-23T08:00:04;19.58;;;4.90;;
48813;SDS011;34634;44.108;3.074;2022-10-23T08:02:30;21.58;;;5.68;;
48813;SDS011;34634;44.108;3.074;2022-10-23T08:04:57;23.58;;;5.55;;
48813;SDS011;34634;44.108;3.074;2022-10-23T08:07:23;20.67;;;5.47;;
48813;SDS011;34634;44.108;3.074;2022-10-23T08:09:49;24.23;;;5.00;;
48813;SDS011;34634;44.108;3.074;2022-10-23T08:12:15;24.83;;;5.55;;
48813;SDS011;34634;44.108;3.074;2022-10-23T08:14:42;26.45;;;5.93;;
48813;SDS011;34634;44.108;3.074;2022-10-23T08:17:08;23.63;;;5.00;;
48813;SDS011;34634;44.108;3.074;2022-10-23T08:19:35;22.10;;;5.80;;
48813;SDS011;34634;44.108;3.074;2022-10-23T08:22:01;25.60;;;5.45;;
48813;SDS011;34634;44.108;3.074;2022-10-23T08:24:28;29.38;;;5.25;;
48813;SDS011;34634;44.108;3.074;2022-10-23T08:26:54;30.30;;;5.90;;
48813;SDS011;34634;44.108;3.074;2022-10-23T08:29:21;36.45;;;6.07;;
48813;SDS011;34634;44.108;3.074;2022-10-23T08:31:47;35.28;;;6.43;;
48813;SDS011;34634;44.108;3.074;2022-10-23T08:34:13;21.60;;;6.10;;
48813;SDS011;34634;44.108;3.074;2022-10-23T08:36:40;22.27;;;5.80;;
48813;SDS011;34634;44.108;3.074;2022-10-23T08:39:06;29.77;;;5.00;;
48813;SDS011;34634;44.108;3.074;2022-10-23T08:41:37;27.00;;;6.25;;
48813;SDS011;34634;44.108;3.074;2022-10-23T08:46:32;32.83;;;6.28;;
48813;SDS011;34634;44.108;3.074;2022-10-23T08:49:19;33.55;;;6.00;;
48813;SDS011;34634;44.108;3.074;2022-10-23T08:51:49;26.15;;;6.55;;
48813;SDS011;34634;44.108;3.074;2022-10-23T08:54:51;28.80;;;5.72;;
48813;SDS011;34634;44.108;3.074;2022-10-23T08:57:09;30.85;;;6.22;;
48813;SDS011;34634;44.108;3.074;2022-10-23T08:59:43;22.38;;;5.97;;
48813;SDS011;34634;44.108;3.074;2022-10-23T09:02:25;24.55;;;5.97;;
48813;SDS011;34634;44.108;3.074;2022-10-23T09:04:52;32.53;;;5.85;;
48813;SDS011;34634;44.108;3.074;2022-10-23T09:10:02;23.23;;;5.90;;
48813;SDS011;34634;44.108;3.074;2022-10-23T09:17:40;19.77;;;5.65;;
48813;SDS011;34634;44.108;3.074;2022-10-23T09:20:27;25.40;;;5.70;;
48813;SDS011;34634;44.108;3.074;2022-10-23T09:23:06;30.25;;;6.00;;
48813;SDS011;34634;44.108;3.074;2022-10-23T09:25:38;24.33;;;5.72;;
48813;SDS011;34634;44.108;3.074;2022-10-23T09:28:04;24.90;;;5.55;;
48813;SDS011;34634;44.108;3.074;2022-10-23T09:32:58;17.95;;;5.50;;
48813;SDS011;34634;44.108;3.074;2022-10-23T09:35:26;35.88;;;5.97;;
48813;SDS011;34634;44.108;3.074;2022-10-23T09:37:53;28.35;;;6.18;;
48813;SDS011;34634;44.108;3.074;2022-10-23T09:42:50;32.95;;;6.78;;
48813;SDS011;34634;44.108;3.074;2022-10-23T09:45:21;32.08;;;6.03;;
48813;SDS011;34634;44.108;3.074;2022-10-23T09:47:48;30.52;;;5.90;;
48813;SDS011;34634;44.108;3.074;2022-10-23T09:50:20;27.92;;;5.93;;
48813;SDS011;34634;44.108;3.074;2022-10-23T09:52:48;24.05;;;6.55;;
48813;SDS011;34634;44.108;3.074;2022-10-23T09:55:18;28.38;;;6.43;;
48813;SDS011;34634;44.108;3.074;2022-10-23T09:57:45;25.73;;;6.22;;
48813;SDS011;34634;44.108;3.074;2022-10-23T10:02:38;24.15;;;6.63;;
48813;SDS011;34634;44.108;3.074;2022-10-23T10:05:40;27.83;;;5.85;;
48813;SDS011;34634;44.108;3.074;2022-10-23T10:10:28;27.77;;;5.53;;
48813;SDS011;34634;44.108;3.074;2022-10-23T10:12:57;16.55;;;4.90;;
48813;SDS011;34634;44.108;3.074;2022-10-23T10:15:27;30.53;;;6.13;;
48813;SDS011;34634;44.108;3.074;2022-10-23T10:22:52;20.90;;;5.63;;
48813;SDS011;34634;44.108;3.074;2022-10-23T10:30:22;29.75;;;6.22;;
48813;SDS011;34634;44.108;3.074;2022-10-23T10:35:22;27.33;;;6.97;;
48813;SDS011;34634;44.108;3.074;2022-10-23T10:40:30;19.00;;;5.40;;
48813;SDS011;34634;44.108;3.074;2022-10-23T10:43:20;31.95;;;6.43;;
48813;SDS011;34634;44.108;3.074;2022-10-23T10:50:51;26.63;;;5.55;;
48813;SDS011;34634;44.108;3.074;2022-10-23T10:55:52;33.67;;;6.13;;
48813;SDS011;34634;44.108;3.074;2022-10-23T10:58:37;27.27;;;6.78;;
48813;SDS011;34634;44.108;3.074;2022-10-23T11:04:03;26.63;;;5.40;;
48813;SDS011;34634;44.108;3.074;2022-10-23T11:06:32;22.33;;;4.85;;
48813;SDS011;34634;44.108;3.074;2022-10-23T11:09:03;31.75;;;6.07;;
48813;SDS011;34634;44.108;3.074;2022-10-23T11:11:32;17.08;;;5.47;;
48813;SDS011;34634;44.108;3.074;2022-10-23T11:13:59;30.55;;;6.28;;
48813;SDS011;34634;44.108;3.074;2022-10-23T11:16:33;23.92;;;5.65;;
48813;SDS011;34634;44.108;3.074;2022-10-23T11:19:11;24.65;;;5.57;;
48813;SDS011;34634;44.108;3.074;2022-10-23T11:21:40;28.05;;;6.18;;
48813;SDS011;34634;44.108;3.074;2022-10-23T11:37:20;23.65;;;5.47;;
48813;SDS011;34634;44.108;3.074;2022-10-23T11:40:00;31.38;;;6.22;;
48813;SDS011;34634;44.108;3.074;2022-10-23T11:48:02;26.13;;;5.88;;
48813;SDS011;34634;44.108;3.074;2022-10-23T11:50:33;30.90;;;5.75;;
48813;SDS011;34634;44.108;3.074;2022-10-23T11:53:04;21.15;;;5.70;;
48813;SDS011;34634;44.108;3.074;2022-10-23T11:55:35;32.83;;;6.18;;
48813;SDS011;34634;44.108;3.074;2022-10-23T12:00:51;28.77;;;5.82;;
48813;SDS011;34634;44.108;3.074;2022-10-23T12:03:19;31.80;;;5.95;;
48813;SDS011;34634;44.108;3.074;2022-10-23T12:05:53;25.55;;;5.75;;
48813;SDS011;34634;44.108;3.074;2022-10-23T12:08:22;32.42;;;6.75;;
48813;SDS011;34634;44.108;3.074;2022-10-23T12:10:50;26.10;;;6.05;;
48813;SDS011;34634;44.108;3.074;2022-10-23T12:16:02;28.40;;;5.72;;
48813;SDS011;34634;44.108;3.074;2022-10-23T12:18:29;29.58;;;6.30;;
48813;SDS011;34634;44.108;3.074;2022-10-23T12:20:56;34.65;;;6.78;;
48813;SDS011;34634;44.108;3.074;2022-10-23T12:29:19;25.55;;;6.32;;
48813;SDS011;34634;44.108;3.074;2022-10-23T12:34:13;29.67;;;6.13;;
48813;SDS011;34634;44.108;3.074;2022-10-23T12:39:27;27.85;;;6.15;;
48813;SDS011;34634;44.108;3.074;2022-10-23T12:41:54;32.58;;;7.03;;
48813;SDS011;34634;44.108;3.074;2022-10-23T12:44:21;26.83;;;6.63;;
48813;SDS011;34634;44.108;3.074;2022-10-23T12:46:50;25.67;;;5.45;;
48813;SDS011;34634;44.108;3.074;2022-10-23T12:49:19;32.05;;;7.25;;
48813;SDS011;34634;44.108;3.074;2022-10-23T12:51:53;28.30;;;7.78;;
48813;SDS011;34634;44.108;3.074;2022-10-23T12:54:19;32.83;;;8.32;;
48813;SDS011;34634;44.108;3.074;2022-10-23T12:56:46;39.22;;;7.93;;
48813;SDS011;34634;44.108;3.074;2022-10-23T12:59:17;35.15;;;6.63;;
48813;SDS011;34634;44.108;3.074;2022-10-23T13:01:44;36.42;;;8.63;;
48813;SDS011;34634;44.108;3.074;2022-10-23T13:06:37;29.83;;;7.40;;
48813;SDS011;34634;44.108;3.074;2022-10-23T13:09:05;31.48;;;6.85;;
48813;SDS011;34634;44.108;3.074;2022-10-23T13:11:32;29.50;;;7.40;;
48813;SDS011;34634;44.108;3.074;2022-10-23T13:13:58;21.98;;;6.45;;
48813;SDS011;34634;44.108;3.074;2022-10-23T13:16:26;33.00;;;7.00;;
48813;SDS011;34634;44.108;3.074;2022-10-23T13:18:52;33.10;;;7.47;;
48813;SDS011;34634;44.108;3.074;2022-10-23T13:21:22;23.40;;;5.57;;
48813;SDS011;34634;44.108;3.074;2022-10-23T13:23:49;36.40;;;7.00;;
48813;SDS011;34634;44.108;3.074;2022-10-23T13:26:22;24.10;;;5.35;;
48813;SDS011;34634;44.108;3.074;2022-10-23T13:28:49;30.88;;;6.80;;
48813;SDS011;34634;44.108;3.074;2022-10-23T13:38:38;34.08;;;6.88;;
48813;SDS011;34634;44.108;3.074;2022-10-23T13:41:08;30.20;;;6.88;;
48813;SDS011;34634;44.108;3.074;2022-10-23T13:43:36;38.42;;;7.30;;
48813;SDS011;34634;44.108;3.074;2022-10-23T13:46:03;25.98;;;7.53;;
48813;SDS011;34634;44.108;3.074;2022-10-23T13:48:29;33.85;;;7.95;;
48813;SDS011;34634;44.108;3.074;2022-10-23T13:51:41;29.45;;;7.97;;
48813;SDS011;34634;44.108;3.074;2022-10-23T13:53:42;30.73;;;7.97;;
48813;SDS011;34634;44.108;3.074;2022-10-23T13:56:09;38.03;;;8.65;;
48813;SDS011;34634;44.108;3.074;2022-10-23T13:58:36;29.10;;;7.53;;
48813;SDS011;34634;44.108;3.074;2022-10-23T14:01:03;27.50;;;7.30;;
48813;SDS011;34634;44.108;3.074;2022-10-23T14:03:29;29.80;;;7.55;;
48813;SDS011;34634;44.108;3.074;2022-10-23T14:05:55;29.08;;;7.90;;
48813;SDS011;34634;44.108;3.074;2022-10-23T14:08:22;29.38;;;7.53;;
48813;SDS011;34634;44.108;3.074;2022-10-23T14:10:48;36.22;;;7.90;;
48813;SDS011;34634;44.108;3.074;2022-10-23T14:13:14;37.42;;;7.88;;
48813;SDS011;34634;44.108;3.074;2022-10-23T14:15:41;29.45;;;7.85;;
48813;SDS011;34634;44.108;3.074;2022-10-23T14:18:07;25.73;;;7.68;;
48813;SDS011;34634;44.108;3.074;2022-10-23T14:20:33;28.20;;;6.50;;
48813;SDS011;34634;44.108;3.074;2022-10-23T14:23:00;31.38;;;7.68;;
48813;SDS011;34634;44.108;3.074;2022-10-23T14:25:26;32.28;;;7.50;;
48813;SDS011;34634;44.108;3.074;2022-10-23T14:27:53;29.70;;;7.72;;
48813;SDS011;34634;44.108;3.074;2022-10-23T14:30:19;32.88;;;7.20;;
48813;SDS011;34634;44.108;3.074;2022-10-23T14:32:46;28.73;;;7.35;;
48813;SDS011;34634;44.108;3.074;2022-10-23T14:35:12;26.65;;;7.72;;
48813;SDS011;34634;44.108;3.074;2022-10-23T14:37:38;34.88;;;7.40;;
48813;SDS011;34634;44.108;3.074;2022-10-23T14:40:05;24.13;;;6.90;;
48813;SDS011;34634;44.108;3.074;2022-10-23T14:42:31;30.17;;;6.93;;
48813;SDS011;34634;44.108;3.074;2022-10-23T14:44:59;29.05;;;7.25;;
48813;SDS011;34634;44.108;3.074;2022-10-23T14:47:26;32.42;;;6.20;;
48813;SDS011;34634;44.108;3.074;2022-10-23T14:49:52;31.00;;;6.88;;
48813;SDS011;34634;44.108;3.074;2022-10-23T14:52:20;24.70;;;6.55;;
48813;SDS011;34634;44.108;3.074;2022-10-23T14:54:47;30.27;;;7.03;;
48813;SDS011;34634;44.108;3.074;2022-10-23T14:57:15;29.88;;;7.90;;
48813;SDS011;34634;44.108;3.074;2022-10-23T14:59:43;27.95;;;7.78;;
48813;SDS011;34634;44.108;3.074;2022-10-23T15:02:09;28.67;;;7.28;;
48813;SDS011;34634;44.108;3.074;2022-10-23T15:04:36;29.92;;;6.93;;
48813;SDS011;34634;44.108;3.074;2022-10-23T15:07:02;27.45;;;7.43;;
48813;SDS011;34634;44.108;3.074;2022-10-23T15:09:29;32.38;;;7.93;;
48813;SDS011;34634;44.108;3.074;2022-10-23T15:11:58;24.02;;;6.50;;
48813;SDS011;34634;44.108;3.074;2022-10-23T15:14:25;27.95;;;6.85;;
48813;SDS011;34634;44.108;3.074;2022-10-23T15:16:51;33.58;;;8.00;;
48813;SDS011;34634;44.108;3.074;2022-10-23T15:19:17;33.53;;;8.30;;
48813;SDS011;34634;44.108;3.074;2022-10-23T15:21:44;26.85;;;7.00;;
48813;SDS011;34634;44.108;3.074;2022-10-23T15:24:11;29.02;;;7.35;;
48813;SDS011;34634;44.108;3.074;2022-10-23T15:26:38;32.97;;;7.30;;
48813;SDS011;34634;44.108;3.074;2022-10-23T15:29:07;24.05;;;7.05;;
48813;SDS011;34634;44.108;3.074;2022-10-23T15:34:05;25.50;;;7.18;;
48813;SDS011;34634;44.108;3.074;2022-10-23T15:36:32;30.52;;;7.57;;
48813;SDS011;34634;44.108;3.074;2022-10-23T15:38:58;28.58;;;7.10;;
48813;SDS011;34634;44.108;3.074;2022-10-23T15:41:28;35.25;;;8.32;;
48813;SDS011;34634;44.108;3.074;2022-10-23T15:43:55;30.83;;;8.60;;
48813;SDS011;34634;44.108;3.074;2022-10-23T15:46:22;25.90;;;7.57;;
48813;SDS011;34634;44.108;3.074;2022-10-23T15:48:49;30.77;;;7.05;;
48813;SDS011;34634;44.108;3.074;2022-10-23T15:51:15;29.67;;;7.50;;
48813;SDS011;34634;44.108;3.074;2022-10-23T15:53:41;27.52;;;6.85;;
48813;SDS011;34634;44.108;3.074;2022-10-23T15:56:08;23.90;;;7.43;;
48813;SDS011;34634;44.108;3.074;2022-10-23T15:58:34;30.48;;;6.43;;
48813;SDS011;34634;44.108;3.074;2022-10-23T16:01:01;24.83;;;6.93;;
48813;SDS011;34634;44.108;3.074;2022-10-23T16:03:34;28.45;;;7.85;;
48813;SDS011;34634;44.108;3.074;2022-10-23T16:06:04;28.10;;;6.85;;
48813;SDS011;34634;44.108;3.074;2022-10-23T16:08:30;27.67;;;8.13;;
48813;SDS011;34634;44.108;3.074;2022-10-23T16:10:57;26.65;;;7.50;;
48813;SDS011;34634;44.108;3.074;2022-10-23T16:13:24;39.25;;;8.05;;
48813;SDS011;34634;44.108;3.074;2022-10-23T16:15:50;29.80;;;7.38;;
48813;SDS011;34634;44.108;3.074;2022-10-23T16:18:20;30.35;;;7.70;;
48813;SDS011;34634;44.108;3.074;2022-10-23T16:20:47;28.65;;;7.70;;
48813;SDS011;34634;44.108;3.074;2022-10-23T16:23:15;25.05;;;7.22;;
48813;SDS011;34634;44.108;3.074;2022-10-23T16:25:41;32.63;;;8.18;;
48813;SDS011;34634;44.108;3.074;2022-10-23T16:28:08;33.05;;;8.02;;
48813;SDS011;34634;44.108;3.074;2022-10-23T16:30:38;29.27;;;7.97;;
48813;SDS011;34634;44.108;3.074;2022-10-23T16:33:05;26.63;;;7.32;;
48813;SDS011;34634;44.108;3.074;2022-10-23T16:35:31;27.50;;;7.13;;
48813;SDS011;34634;44.108;3.074;2022-10-23T16:37:57;28.35;;;6.95;;